Time;durP1;ratioP1;P1;durP2;ratioP2;P2;SDS_P1;SDS_P2;PMS_P1;PMS_P2;Temp;Humidity;BMP_temperature;BMP_pressure;BME280_temperature;BME280_humidity;BME280_pressure;Samples;Min_cycle;Max_cycle;Signal;HPM_P1;HPM_P2
2022/11/02 00:01:43;;;;;;;8.02;1.90;;;11.80;99.90;;;;;;5052097;28;20037;-69
2022/11/02 00:04:10;;;;;;;9.98;1.80;;;11.70;99.90;;;;;;5049685;28;20116;-68
2022/11/02 00:06:40;;;;;;;6.18;1.20;;;11.70;99.90;;;;;;5052998;28;20413;-67
2022/11/02 00:09:06;;;;;;;5.18;1.38;;;11.60;99.90;;;;;;5052986;28;20470;-68
2022/11/02 00:11:32;;;;;;;3.17;1.20;;;11.60;99.90;;;;;;5053218;28;20041;-68
2022/11/02 00:13:58;;;;;;;8.10;1.35;;;11.50;99.90;;;;;;5051785;28;20037;-67
2022/11/02 00:16:24;;;;;;;5.75;1.73;;;11.50;99.90;;;;;;5052999;28;20154;-68
2022/11/02 00:18:57;;;;;;;5.65;1.70;;;11.50;99.90;;;;;;5051816;28;20049;-68
2022/11/02 00:21:25;;;;;;;5.53;1.30;;;11.50;99.90;;;;;;5051646;28;20474;-67
2022/11/02 00:23:51;;;;;;;8.40;1.80;;;11.40;99.90;;;;;;5052801;28;20052;-68
2022/11/02 00:26:18;;;;;;;6.43;1.42;;;11.40;99.90;;;;;;5051459;28;20049;-67
2022/11/02 00:28:44;;;;;;;8.63;1.58;;;11.40;99.90;;;;;;5035206;28;20059;-67
2022/11/02 00:31:10;;;;;;;6.22;1.40;;;11.30;99.90;;;;;;5052741;28;20504;-67
2022/11/02 00:33:35;;;;;;;6.13;1.40;;;11.40;99.90;;;;;;5049418;28;20033;-68
2022/11/02 00:36:01;;;;;;;7.43;1.40;;;11.30;99.90;;;;;;5052759;28;20497;-68
2022/11/02 00:38:27;;;;;;;6.40;0.95;;;11.30;99.90;;;;;;5051681;28;20052;-68
2022/11/02 00:40:53;;;;;;;3.10;1.10;;;11.30;99.90;;;;;;5051749;28;20513;-68
2022/11/02 00:43:18;;;;;;;3.95;1.38;;;11.20;99.90;;;;;;5051376;28;20516;-67
2022/11/02 00:45:44;;;;;;;5.32;1.10;;;11.20;99.90;;;;;;5034652;28;20047;-67
2022/11/02 00:48:10;;;;;;;1.55;0.60;;;11.20;99.90;;;;;;5051626;28;20041;-68
2022/11/02 00:50:36;;;;;;;3.10;0.77;;;11.20;99.90;;;;;;5051278;28;20480;-68
2022/11/02 00:53:01;;;;;;;3.05;0.98;;;11.10;99.90;;;;;;5052511;28;20029;-67
2022/11/02 00:55:27;;;;;;;4.63;1.30;;;11.10;99.90;;;;;;5051297;28;20128;-67
2022/11/02 00:57:53;;;;;;;3.45;0.80;;;11.10;99.90;;;;;;5051413;28;20044;-67
2022/11/02 01:00:19;;;;;;;3.78;0.80;;;11.00;99.90;;;;;;5052662;28;20051;-68
2022/11/02 01:02:44;;;;;;;5.50;0.70;;;11.00;99.90;;;;;;5053583;28;20525;-67
2022/11/02 01:05:11;;;;;;;2.03;0.55;;;11.00;99.90;;;;;;5054241;28;20111;-67
2022/11/02 01:07:37;;;;;;;3.55;0.90;;;11.00;99.90;;;;;;5055071;28;20113;-68
2022/11/02 01:10:07;;;;;;;5.78;1.02;;;11.00;99.90;;;;;;5056470;28;20044;-67
2022/11/02 01:12:36;;;;;;;4.00;0.82;;;11.00;99.90;;;;;;5055107;28;20524;-67
2022/11/02 01:15:02;;;;;;;3.50;1.00;;;10.90;99.90;;;;;;5038349;28;20612;-67
2022/11/02 01:17:28;;;;;;;3.78;0.80;;;10.90;99.90;;;;;;5054941;28;20523;-66
2022/11/02 01:19:54;;;;;;;3.75;0.60;;;10.90;99.90;;;;;;5054961;28;20052;-67
2022/11/02 01:22:19;;;;;;;4.55;0.93;;;10.80;99.90;;;;;;5038250;28;20045;-67
2022/11/02 01:24:45;;;;;;;3.30;1.08;;;10.80;99.90;;;;;;5054544;28;20059;-67
2022/11/02 01:27:11;;;;;;;2.75;0.90;;;10.80;99.90;;;;;;5054570;28;20051;-67
2022/11/02 01:29:37;;;;;;;2.58;1.10;;;10.80;99.90;;;;;;5056022;28;20090;-67
2022/11/02 01:32:02;;;;;;;3.45;1.00;;;10.80;99.90;;;;;;5054639;28;20044;-67
2022/11/02 01:34:30;;;;;;;4.10;1.30;;;10.80;99.90;;;;;;5053583;28;20045;-67
2022/11/02 01:36:55;;;;;;;3.33;1.27;;;10.80;99.90;;;;;;5054784;28;20033;-66
2022/11/02 01:39:21;;;;;;;4.68;1.35;;;10.90;99.90;;;;;;5054811;28;20385;-67
2022/11/02 01:41:51;;;;;;;3.42;1.30;;;10.90;99.90;;;;;;5055896;28;20119;-66
2022/11/02 01:44:34;;;;;;;7.63;1.88;;;10.90;99.90;;;;;;5055863;28;20041;-67
2022/11/02 01:47:02;;;;;;;6.18;1.73;;;10.90;99.90;;;;;;5055486;28;20041;-66
2022/11/02 01:49:31;;;;;;;3.58;1.90;;;10.90;99.90;;;;;;5055558;28;20037;-66
2022/11/02 01:52:11;;;;;;;7.50;2.30;;;11.00;99.90;;;;;;5054479;28;20059;-67
2022/11/02 01:54:47;;;;;;;7.57;2.10;;;11.00;99.90;;;;;;5037688;28;20045;-67
2022/11/02 01:57:18;;;;;;;7.10;2.20;;;11.00;99.90;;;;;;5054340;28;20045;-66
2022/11/02 02:00:03;;;;;;;7.60;2.35;;;11.10;99.90;;;;;;5055575;28;20068;-66
2022/11/02 02:02:29;;;;;;;6.88;1.80;;;11.10;99.90;;;;;;5054159;28;20088;-66
2022/11/02 02:05:06;;;;;;;5.45;2.20;;;11.10;99.90;;;;;;5035350;28;20057;-66
2022/11/02 02:07:35;;;;;;;5.57;2.00;;;11.10;99.90;;;;;;5053877;28;20386;-66
2022/11/02 02:10:01;;;;;;;6.45;2.03;;;11.10;99.90;;;;;;5054164;28;20052;-67
2022/11/02 02:12:29;;;;;;;5.25;1.75;;;11.10;99.90;;;;;;5055318;28;20045;-67
2022/11/02 02:14:55;;;;;;;7.70;1.42;;;11.10;99.90;;;;;;5054675;28;20486;-67
2022/11/02 02:17:26;;;;;;;4.47;1.10;;;11.10;99.90;;;;;;5055171;28;20051;-66
2022/11/02 02:20:27;;;;;;;5.72;1.13;;;11.10;99.90;;;;;;5055078;28;20493;-67
2022/11/02 02:23:20;;;;;;;4.88;0.85;;;11.10;99.90;;;;;;5063073;28;20482;-66
2022/11/02 02:26:27;;;;;;;3.10;0.70;;;11.10;99.90;;;;;;5053448;28;20057;-65
2022/11/02 02:29:02;;;;;;;4.90;0.80;;;11.00;99.90;;;;;;5039103;28;20041;-66
2022/11/02 02:31:40;;;;;;;1.70;0.68;;;11.00;99.90;;;;;;5037086;28;20389;-66
2022/11/02 02:34:12;;;;;;;3.35;0.77;;;11.00;99.90;;;;;;5035020;28;20511;-65
2022/11/02 02:36:56;;;;;;;3.28;0.45;;;11.00;99.90;;;;;;5053405;28;20084;-66
2022/11/02 02:39:50;;;;;;;1.88;0.50;;;10.90;99.90;;;;;;5054592;28;20041;-66
2022/11/02 02:42:39;;;;;;;1.85;0.40;;;10.90;99.90;;;;;;5036813;28;20041;-65
2022/11/02 02:45:44;;;;;;;0.60;0.30;;;10.80;99.90;;;;;;5053199;28;20076;-66
2022/11/02 02:48:18;;;;;;;1.33;0.60;;;10.80;99.90;;;;;;5053162;28;20048;-67
2022/11/02 02:50:58;;;;;;;2.30;0.40;;;10.70;99.90;;;;;;5053280;28;20041;-66
2022/11/02 02:53:30;;;;;;;3.15;0.60;;;10.70;99.90;;;;;;5036567;28;20049;-66
2022/11/02 02:55:58;;;;;;;4.88;0.70;;;10.70;99.90;;;;;;5053130;28;20559;-66
2022/11/02 02:58:30;;;;;;;6.65;1.83;;;10.70;99.90;;;;;;5054510;28;20044;-66
2022/11/02 03:00:57;;;;;;;2.22;0.70;;;10.80;99.90;;;;;;5052953;28;20470;-66
2022/11/02 03:03:25;;;;;;;4.07;0.80;;;10.80;99.90;;;;;;5051016;28;20041;-65
2022/11/02 03:06:06;;;;;;;6.72;1.10;;;10.80;99.90;;;;;;5052922;28;20049;-65
2022/11/02 03:08:37;;;;;;;4.70;1.05;;;10.80;99.90;;;;;;5052854;28;20072;-66
2022/11/02 03:11:14;;;;;;;2.97;1.00;;;10.70;99.90;;;;;;5052771;28;20102;-65
2022/11/02 03:14:01;;;;;;;6.22;1.00;;;10.70;99.90;;;;;;5054090;28;20048;-66
2022/11/02 03:17:14;;;;;;;7.53;2.15;;;10.70;99.90;;;;;;5053940;28;20082;-66
2022/11/02 03:19:51;;;;;;;7.75;1.00;;;10.60;99.90;;;;;;5036084;28;20056;-65
2022/11/02 03:22:29;;;;;;;3.97;1.60;;;10.70;99.90;;;;;;5052823;28;20102;-66
2022/11/02 03:25:09;;;;;;;4.72;1.23;;;10.70;99.90;;;;;;5052308;28;20485;-65
2022/11/02 03:28:06;;;;;;;3.00;0.77;;;10.70;99.90;;;;;;5051622;28;20052;-66
2022/11/02 03:30:43;;;;;;;4.40;0.88;;;10.80;99.90;;;;;;5059531;28;20280;-65
2022/11/02 03:33:24;;;;;;;5.07;1.00;;;10.80;99.90;;;;;;5053351;28;20485;-66
2022/11/02 03:35:59;;;;;;;10.73;1.27;;;10.80;99.90;;;;;;5052272;28;20673;-66
2022/11/02 03:38:44;;;;;;;7.22;1.27;;;10.80;99.90;;;;;;5052241;28;20041;-65
2022/11/02 03:41:11;;;;;;;4.78;1.23;;;10.80;99.90;;;;;;5053631;28;20041;-64
2022/11/02 03:43:39;;;;;;;6.75;1.13;;;10.80;99.90;;;;;;5052278;28;20452;-65
2022/11/02 03:46:07;;;;;;;8.90;1.67;;;10.80;99.90;;;;;;5052149;28;20083;-66
2022/11/02 03:48:45;;;;;;;5.18;1.15;;;10.80;99.90;;;;;;5053483;28;20041;-66
2022/11/02 03:51:14;;;;;;;7.32;1.10;;;10.80;99.90;;;;;;5053461;28;20048;-66
2022/11/02 03:53:55;;;;;;;5.65;1.17;;;10.80;99.90;;;;;;5052301;28;20033;-66
2022/11/02 03:56:27;;;;;;;5.22;1.13;;;10.70;99.90;;;;;;5035665;28;20084;-66
2022/11/02 03:58:53;;;;;;;8.65;1.20;;;10.70;99.90;;;;;;5053420;28;20041;-65
2022/11/02 04:01:20;;;;;;;3.60;1.10;;;10.70;99.90;;;;;;5035279;28;20053;-66
2022/11/02 04:03:46;;;;;;;11.63;1.85;;;10.70;99.90;;;;;;5051126;28;20040;-66
2022/11/02 04:06:13;;;;;;;7.75;1.30;;;10.70;99.90;;;;;;5051756;28;20049;-67
2022/11/02 04:08:42;;;;;;;9.25;2.53;;;10.70;99.90;;;;;;5051766;28;20045;-66
2022/11/02 04:16:37;;;;;;;8.82;1.38;;;10.80;99.90;;;;;;5051687;28;20052;-65
2022/11/02 04:27:17;;;;;;;8.80;1.75;;;10.70;99.90;;;;;;5051358;28;20049;-68
2022/11/02 04:29:42;;;;;;;10.40;1.60;;;10.60;99.90;;;;;;5051606;28;20098;-68
2022/11/02 04:32:09;;;;;;;8.10;1.70;;;10.60;99.90;;;;;;5052725;28;20041;-67
2022/11/02 04:34:35;;;;;;;9.23;2.13;;;10.60;99.90;;;;;;5049245;28;20512;-67
2022/11/02 04:38:39;;;;;;;9.55;2.17;;;10.60;99.90;;;;;;5051340;28;20040;-67
2022/11/02 04:39:47;;;;;;;7.18;1.92;;;10.60;99.90;;;;;;5051323;28;20053;-68
2022/11/02 04:42:13;;;;;;;6.47;1.80;;;10.60;99.90;;;;;;5052660;28;20060;-67
2022/11/02 04:44:38;;;;;;;8.98;2.13;;;10.60;99.90;;;;;;5051450;28;20508;-68
2022/11/02 04:47:04;;;;;;;7.90;2.42;;;10.60;99.90;;;;;;5051271;28;20115;-67
2022/11/02 04:49:30;;;;;;;8.52;2.65;;;10.60;99.90;;;;;;5051277;28;20052;-67
2022/11/02 04:51:55;;;;;;;6.40;1.73;;;10.60;99.90;;;;;;5051288;28;20043;-67
2022/11/02 04:54:21;;;;;;;12.00;2.30;;;10.60;99.90;;;;;;5052496;28;20037;-68
2022/11/02 04:56:47;;;;;;;12.55;2.28;;;10.60;99.90;;;;;;5052496;28;20351;-67
2022/11/02 04:59:12;;;;;;;10.77;2.95;;;10.60;99.90;;;;;;5051434;28;20048;-67
2022/11/02 05:01:38;;;;;;;15.48;2.45;;;10.60;99.90;;;;;;5052625;28;20473;-65
2022/11/02 05:04:04;;;;;;;7.75;2.35;;;10.60;99.90;;;;;;5032331;28;20044;-67
2022/11/02 05:06:30;;;;;;;4.75;1.98;;;10.60;99.90;;;;;;5051104;28;20047;-67
2022/11/02 05:08:56;;;;;;;11.77;3.33;;;10.60;99.90;;;;;;5052520;28;20029;-67
2022/11/02 05:11:21;;;;;;;10.23;2.20;;;10.60;99.90;;;;;;5052314;28;20498;-67
2022/11/02 05:13:47;;;;;;;11.77;2.58;;;10.60;99.90;;;;;;5051058;28;20466;-68
2022/11/02 05:16:15;;;;;;;11.50;2.50;;;10.60;99.90;;;;;;5052546;28;20124;-67
2022/11/02 05:18:41;;;;;;;14.82;2.35;;;10.70;99.90;;;;;;5051246;28;20041;-68
2022/11/02 05:21:08;;;;;;;11.25;2.03;;;10.70;99.90;;;;;;5052288;28;20428;-68
2022/11/02 05:23:34;;;;;;;10.40;2.88;;;10.60;99.90;;;;;;5052466;28;20041;-66
2022/11/02 05:26:05;;;;;;;8.60;1.92;;;10.60;99.90;;;;;;5065596;28;20052;-66
2022/11/02 05:28:32;;;;;;;14.18;2.38;;;10.60;99.90;;;;;;5071099;28;20041;-66
2022/11/02 05:30:59;;;;;;;13.60;2.58;;;10.60;99.90;;;;;;5071735;28;20110;-67
2022/11/02 05:33:30;;;;;;;11.70;2.80;;;10.60;99.90;;;;;;5069618;28;20040;-67
2022/11/02 05:35:56;;;;;;;;;;;10.60;99.90;;;;;;5072394;28;20044;-67
2022/11/02 05:38:23;;;;;;;12.05;2.97;;;10.50;99.90;;;;;;5071150;28;19959;-67
2022/11/02 05:40:59;;;;;;;11.85;3.72;;;10.50;99.90;;;;;;5070945;28;20055;-67
2022/11/02 05:43:25;;;;;;;15.60;2.50;;;10.40;99.90;;;;;;5070849;28;20050;-67
2022/11/02 05:45:56;;;;;;;11.23;1.90;;;10.40;99.90;;;;;;5071014;28;20110;-67
2022/11/02 05:48:24;;;;;;;15.27;2.42;;;10.40;99.90;;;;;;5072187;28;20039;-67
2022/11/02 05:50:57;;;;;;;11.35;1.88;;;10.40;99.90;;;;;;5073232;28;20043;-67
2022/11/02 05:53:25;;;;;;;11.27;2.03;;;10.40;99.90;;;;;;5074615;28;20403;-67
2022/11/02 05:55:51;;;;;;;11.18;2.88;;;10.40;99.90;;;;;;5074579;28;20037;-67
2022/11/02 05:58:17;;;;;;;7.63;2.80;;;10.40;99.90;;;;;;5075435;28;20462;-67
2022/11/02 06:00:43;;;;;;;11.27;2.05;;;10.40;99.90;;;;;;5075388;28;20054;-67
2022/11/02 06:03:09;;;;;;;7.82;2.45;;;10.50;99.90;;;;;;5057627;28;20496;-67
2022/11/02 06:05:34;;;;;;;8.80;2.13;;;10.50;99.90;;;;;;5071876;28;20400;-66
2022/11/02 06:08:00;;;;;;;9.10;2.17;;;10.50;99.90;;;;;;5074276;28;20048;-67
2022/11/02 06:10:28;;;;;;;8.70;2.42;;;10.50;99.90;;;;;;5075306;28;20036;-66
2022/11/02 06:12:59;;;;;;;12.90;2.63;;;10.60;99.90;;;;;;5074301;28;20076;-66
2022/11/02 06:15:25;;;;;;;9.55;2.13;;;10.60;99.90;;;;;;5073855;28;20540;-66
2022/11/02 06:17:51;;;;;;;14.25;2.53;;;10.60;99.90;;;;;;5075085;28;20052;-66
2022/11/02 06:20:18;;;;;;;11.98;2.72;;;10.60;99.90;;;;;;5057392;28;20045;-67
2022/11/02 06:22:44;;;;;;;11.00;2.40;;;10.70;99.90;;;;;;5073792;28;20037;-67
2022/11/02 06:25:10;;;;;;;11.65;2.50;;;10.70;99.90;;;;;;5075026;28;20062;-66
2022/11/02 06:27:36;;;;;;;8.88;2.30;;;10.70;99.90;;;;;;5073645;28;20044;-67
2022/11/02 06:30:03;;;;;;;15.75;2.40;;;10.70;99.90;;;;;;5073636;28;20042;-66
2022/11/02 06:32:29;;;;;;;14.63;2.45;;;10.70;99.90;;;;;;5074890;28;20473;-66
2022/11/02 06:34:54;;;;;;;12.70;2.45;;;10.70;99.90;;;;;;5071367;28;20036;-66
2022/11/02 06:37:21;;;;;;;12.73;2.65;;;10.70;99.90;;;;;;5073594;28;20052;-65
2022/11/02 06:39:47;;;;;;;13.95;2.65;;;10.70;99.90;;;;;;5073368;28;20056;-67
2022/11/02 06:42:13;;;;;;;9.45;1.77;;;10.70;99.90;;;;;;5073667;28;20052;-66
2022/11/02 06:44:39;;;;;;;11.65;3.20;;;10.70;99.90;;;;;;5074714;28;20036;-66
2022/11/02 06:47:05;;;;;;;15.07;2.53;;;10.80;99.90;;;;;;5073345;28;20040;-65
2022/11/02 06:49:31;;;;;;;13.98;2.92;;;10.80;99.90;;;;;;5073384;28;20373;-65
2022/11/02 06:51:57;;;;;;;7.43;1.70;;;10.90;99.90;;;;;;5073112;28;20090;-65
2022/11/02 06:54:23;;;;;;;10.15;2.05;;;10.90;99.90;;;;;;5074672;28;20036;-64
2022/11/02 06:56:48;;;;;;;8.40;1.75;;;10.90;99.90;;;;;;5073323;28;20044;-65
2022/11/02 06:59:17;;;;;;;14.20;1.83;;;10.90;99.90;;;;;;5073284;28;20098;-67
2022/11/02 07:01:43;;;;;;;5.25;1.52;;;10.90;99.90;;;;;;5073078;28;20132;-66
2022/11/02 07:04:08;;;;;;;7.63;1.33;;;10.80;99.90;;;;;;5071162;28;20575;-66
2022/11/02 07:06:34;;;;;;;11.07;1.58;;;10.90;99.90;;;;;;5072871;28;20516;-66
2022/11/02 07:09:00;;;;;;;7.55;1.10;;;10.90;99.90;;;;;;5074270;28;20116;-67
2022/11/02 07:11:26;;;;;;;8.82;1.80;;;10.90;99.90;;;;;;5073562;28;20033;-66
2022/11/02 07:13:51;;;;;;;10.52;1.50;;;10.90;99.90;;;;;;5074113;28;20040;-66
2022/11/02 07:16:17;;;;;;;10.52;1.60;;;11.00;99.90;;;;;;5073880;28;20043;-66
2022/11/02 07:18:43;;;;;;;10.07;1.50;;;11.00;99.90;;;;;;5073921;28;20127;-66
2022/11/02 07:21:10;;;;;;;13.65;2.00;;;11.00;99.90;;;;;;5072684;28;20194;-66
2022/11/02 07:23:36;;;;;;;10.57;2.13;;;11.00;99.90;;;;;;5055958;28;20052;-65
2022/11/02 07:26:03;;;;;;;10.45;1.60;;;11.00;99.90;;;;;;5072231;28;20087;-65
2022/11/02 07:28:29;;;;;;;5.38;1.30;;;11.10;99.90;;;;;;5070627;28;20044;-66
2022/11/02 07:30:55;;;;;;;10.55;1.52;;;11.10;99.90;;;;;;5073541;28;20036;-65
2022/11/02 07:33:21;;;;;;;7.63;1.38;;;11.20;99.90;;;;;;5070616;28;20040;-64
2022/11/02 07:35:47;;;;;;;9.35;1.77;;;11.20;99.90;;;;;;5071829;28;20033;-65
2022/11/02 07:39:00;;;;;;;10.90;1.20;;;11.20;99.90;;;;;;5068809;28;20032;-64
2022/11/02 07:41:26;;;;;;;8.60;1.45;;;11.20;99.90;;;;;;5066706;28;20047;-65
2022/11/02 07:43:52;;;;;;;8.43;1.30;;;11.20;99.90;;;;;;5054580;28;20052;-65
2022/11/02 07:46:28;;;;;;;6.55;1.25;;;11.20;99.90;;;;;;5051686;28;20477;-65
2022/11/02 07:48:54;;;;;;;9.35;1.40;;;11.30;99.90;;;;;;5052512;28;20037;-66
2022/11/02 07:51:20;;;;;;;5.78;0.88;;;11.30;99.90;;;;;;5046654;28;20041;-65
2022/11/02 07:54:01;;;;;;;4.00;0.95;;;11.30;99.90;;;;;;5051721;28;20045;-65
2022/11/02 07:56:32;;;;;;;5.50;1.00;;;11.40;99.90;;;;;;5048855;28;20045;-65
2022/11/02 07:59:01;;;;;;;5.00;1.83;;;11.40;99.90;;;;;;5035185;28;20045;-65
2022/11/02 08:01:28;;;;;;;9.23;1.15;;;11.40;99.90;;;;;;5048877;28;20112;-65
2022/11/02 08:03:56;;;;;;;6.63;1.08;;;11.40;99.90;;;;;;5034942;28;20037;-65
2022/11/02 08:06:24;;;;;;;9.43;1.50;;;11.40;99.90;;;;;;5052683;28;20036;-66
2022/11/02 08:08:55;;;;;;;10.77;1.30;;;11.40;99.90;;;;;;5052739;28;20043;-66
2022/11/02 08:11:30;;;;;;;7.57;2.35;;;11.40;99.90;;;;;;5052412;28;20049;-66
2022/11/02 08:14:01;;;;;;;9.18;1.25;;;11.50;99.90;;;;;;5050759;28;20072;-66
2022/11/02 08:16:33;;;;;;;5.78;0.80;;;11.70;99.90;;;;;;5051402;28;20501;-66
2022/11/02 08:19:01;;;;;;;8.93;1.50;;;12.00;99.90;;;;;;5052504;28;20039;-66
2022/11/02 08:21:27;;;;;;;7.32;1.25;;;12.40;99.90;;;;;;5032754;28;20069;-65
2022/11/02 08:23:59;;;;;;;6.95;1.52;;;12.70;99.90;;;;;;5054448;28;20110;-66
2022/11/02 08:26:26;;;;;;;8.32;1.63;;;12.80;99.90;;;;;;5052307;28;20083;-65
2022/11/02 08:28:52;;;;;;;12.52;2.63;;;12.90;99.90;;;;;;5052544;28;20106;-66
2022/11/02 08:31:29;;;;;;;4.68;1.25;;;12.90;99.90;;;;;;5052409;28;20485;-66
2022/11/02 08:33:57;;;;;;;7.57;1.63;;;13.00;99.90;;;;;;5051011;28;20041;-66
2022/11/02 08:36:23;;;;;;;6.18;1.48;;;13.00;99.90;;;;;;5056520;28;20036;-66
2022/11/02 08:38:52;;;;;;;8.52;2.00;;;13.20;99.90;;;;;;5054286;28;20065;-65
2022/11/02 08:41:20;;;;;;;6.78;1.50;;;13.60;99.90;;;;;;5052420;28;20107;-66
2022/11/02 08:43:54;;;;;;;7.85;1.95;;;13.90;99.90;;;;;;5051909;28;20051;-66
2022/11/02 08:46:37;;;;;;;6.72;1.35;;;14.40;99.90;;;;;;5051255;28;20037;-67
2022/11/02 08:49:09;;;;;;;7.13;2.20;;;15.00;99.90;;;;;;5034435;28;20039;-66
2022/11/02 08:51:37;;;;;;;6.97;1.65;;;15.60;99.90;;;;;;5050052;28;20069;-67
2022/11/02 08:54:03;;;;;;;9.00;1.80;;;16.10;99.90;;;;;;5052425;28;20069;-67
2022/11/02 08:56:29;;;;;;;7.07;1.80;;;16.50;99.90;;;;;;5034699;28;20048;-66
2022/11/02 08:58:55;;;;;;;6.95;1.67;;;16.90;99.90;;;;;;5050994;28;20049;-66
2022/11/02 09:01:21;;;;;;;8.52;1.50;;;17.10;99.90;;;;;;5051948;28;21009;-67
2022/11/02 09:03:50;;;;;;;9.55;2.03;;;17.30;99.90;;;;;;5052256;28;20083;-68
2022/11/02 09:06:16;;;;;;;10.18;2.28;;;17.40;99.90;;;;;;5051145;28;20041;-67
2022/11/02 09:08:42;;;;;;;6.78;1.20;;;17.60;99.90;;;;;;5034414;28;20519;-67
2022/11/02 09:11:08;;;;;;;8.45;1.88;;;17.60;99.90;;;;;;5052049;28;20466;-68
2022/11/02 09:13:34;;;;;;;7.78;1.17;;;17.70;99.90;;;;;;5055391;28;20044;-67
2022/11/02 09:16:00;;;;;;;7.35;1.85;;;17.70;99.90;;;;;;5051798;28;20049;-66
2022/11/02 09:18:26;;;;;;;5.63;1.33;;;17.80;99.90;;;;;;5050957;28;20087;-66
2022/11/02 09:20:52;;;;;;;10.38;1.98;;;17.90;99.90;;;;;;5049504;28;20041;-66
2022/11/02 09:23:20;;;;;;;8.65;1.35;;;18.10;99.90;;;;;;5050689;28;20052;-66
2022/11/02 09:25:47;;;;;;;6.65;1.55;;;18.40;99.90;;;;;;5049695;28;20059;-66
2022/11/02 09:28:14;;;;;;;6.38;1.45;;;18.80;99.90;;;;;;5054680;28;20455;-66
2022/11/02 09:30:40;;;;;;;5.32;1.40;;;19.10;99.90;;;;;;5055576;28;20906;-66
2022/11/02 09:33:07;;;;;;;8.32;1.70;;;19.00;99.90;;;;;;5055653;28;20037;-67
2022/11/02 09:35:36;;;;;;;6.38;2.15;;;19.00;99.90;;;;;;5066096;28;20037;-67
2022/11/02 09:38:02;;;;;;;6.88;1.48;;;19.00;99.90;;;;;;5075405;28;20033;-66
2022/11/02 09:40:36;;;;;;;6.78;1.98;;;19.10;99.90;;;;;;5074457;28;20036;-67
2022/11/02 09:43:40;;;;;;;8.13;1.92;;;19.20;99.90;;;;;;5074253;28;20167;-66
2022/11/02 09:46:12;;;;;;;8.73;1.80;;;19.60;99.90;;;;;;5075201;28;20507;-67
2022/11/02 09:49:02;;;;;;;8.10;1.30;;;19.90;99.90;;;;;;5073894;28;20067;-66
2022/11/02 09:51:36;;;;;;;7.53;1.52;;;20.00;99.90;;;;;;5072001;28;20047;-66
2022/11/02 09:54:05;;;;;;;7.18;1.30;;;19.90;99.90;;;;;;5073949;28;20037;-66
2022/11/02 09:56:32;;;;;;;8.37;2.00;;;19.90;99.90;;;;;;5075246;28;20039;-67
2022/11/02 09:59:10;;;;;;;8.40;1.38;;;20.10;99.90;;;;;;5075129;28;20044;-67
2022/11/02 10:01:54;;;;;;;5.85;1.67;;;20.10;99.90;;;;;;5072480;28;20045;-67
2022/11/02 10:04:35;;;;;;;7.55;1.85;;;20.00;99.90;;;;;;5041357;28;20037;-66
2022/11/02 10:07:26;;;;;;;9.60;1.85;;;20.00;99.90;;;;;;5053584;28;20044;-68
2022/11/02 10:10:13;;;;;;;9.93;2.17;;;20.00;98.90;;;;;;5054661;28;20109;-67
2022/11/02 10:12:51;;;;;;;7.65;1.75;;;19.70;99.10;;;;;;5054349;28;20040;-66
2022/11/02 10:15:29;;;;;;;7.68;1.67;;;19.80;99.90;;;;;;5053660;28;20438;-67
2022/11/02 10:17:59;;;;;;;9.00;1.70;;;20.00;99.90;;;;;;5054605;28;20060;-66
2022/11/02 10:20:33;;;;;;;6.00;1.33;;;20.10;99.90;;;;;;5064155;28;20040;-66
2022/11/02 10:23:05;;;;;;;9.60;1.45;;;20.10;99.90;;;;;;5074297;28;20051;-67
2022/11/02 10:25:34;;;;;;;8.07;1.90;;;20.30;99.90;;;;;;5073006;28;20055;-65
2022/11/02 10:28:10;;;;;;;10.05;1.77;;;20.50;98.30;;;;;;5074394;28;20040;-67
2022/11/02 10:30:37;;;;;;;7.78;1.50;;;19.70;97.80;;;;;;5074647;28;20044;-67
2022/11/02 10:33:11;;;;;;;6.80;1.55;;;19.40;98.70;;;;;;5074294;28;20043;-66
2022/11/02 10:35:43;;;;;;;6.07;1.27;;;19.40;98.90;;;;;;5067238;28;20045;-67
2022/11/02 10:38:38;;;;;;;7.70;1.58;;;19.80;99.90;;;;;;5054011;28;20493;-66
2022/11/02 10:41:23;;;;;;;7.30;1.40;;;20.20;99.00;;;;;;5069583;28;20048;-66
2022/11/02 10:44:10;;;;;;;6.35;1.30;;;20.50;97.30;;;;;;5074329;28;20037;-68
2022/11/02 10:46:57;;;;;;;7.38;1.70;;;20.30;96.20;;;;;;5074044;28;20036;-67
2022/11/02 10:49:54;;;;;;;8.68;1.52;;;20.20;95.80;;;;;;5073045;28;20481;-67
2022/11/02 10:52:21;;;;;;;5.88;1.50;;;20.10;95.40;;;;;;5070777;28;20037;-67
2022/11/02 10:54:55;;;;;;;6.00;1.27;;;19.80;96.50;;;;;;5072867;28;20098;-66
2022/11/02 10:57:23;;;;;;;7.85;2.00;;;19.10;95.20;;;;;;5072256;28;20037;-67
2022/11/02 11:00:31;;;;;;;5.88;1.10;;;18.40;95.50;;;;;;5073353;28;20049;-65
2022/11/02 11:03:12;;;;;;;10.02;1.20;;;18.40;96.10;;;;;;5072797;28;20091;-66
2022/11/02 11:06:00;;;;;;;7.43;1.65;;;18.40;96.20;;;;;;5070065;28;20044;-66
2022/11/02 11:08:37;;;;;;;9.85;1.80;;;18.00;96.30;;;;;;5073959;28;20033;-66
2022/11/02 11:11:36;;;;;;;4.88;1.30;;;17.70;97.10;;;;;;5067645;28;20033;-68
2022/11/02 11:14:16;;;;;;;8.80;1.45;;;17.40;97.30;;;;;;5057713;28;20077;-66
2022/11/02 11:16:57;;;;;;;8.30;1.75;;;16.90;97.90;;;;;;5035602;28;20049;-66
2022/11/02 11:19:46;;;;;;;7.22;1.40;;;16.70;99.10;;;;;;5053562;28;20533;-66
2022/11/02 11:22:34;;;;;;;7.13;1.80;;;16.40;98.90;;;;;;5064977;28;20388;-66
2022/11/02 11:25:11;;;;;;;;;;;16.10;99.00;;;;;;5071751;28;20509;-65
2022/11/02 11:27:58;;;;;;;7.25;1.17;;;16.00;99.80;;;;;;5072904;28;19928;-66
2022/11/02 11:30:36;;;;;;;6.70;1.13;;;16.20;99.90;;;;;;5071821;28;20128;-66
2022/11/02 11:33:18;;;;;;;8.18;1.20;;;16.30;99.90;;;;;;5072050;28;20032;-66
2022/11/02 11:35:49;;;;;;;7.38;1.20;;;16.80;99.90;;;;;;5070429;28;20041;-65
2022/11/02 11:38:35;;;;;;;6.68;1.15;;;17.00;98.60;;;;;;5072176;28;20370;-65
2022/11/02 11:41:02;;;;;;;8.15;1.65;;;16.60;99.00;;;;;;5072112;28;20055;-65
2022/11/02 11:43:39;;;;;;;9.32;1.63;;;16.10;99.50;;;;;;5071912;28;20433;-67
2022/11/02 11:46:10;;;;;;;6.30;1.23;;;15.60;99.90;;;;;;5072894;28;20040;-65
2022/11/02 11:48:54;;;;;;;7.22;1.23;;;15.50;99.90;;;;;;5070228;28;20064;-65
2022/11/02 11:51:44;;;;;;;6.38;1.38;;;16.00;99.90;;;;;;5068489;28;20059;-65
2022/11/02 11:54:32;;;;;;;8.73;1.45;;;16.10;99.90;;;;;;5051504;28;20555;-66
2022/11/02 11:57:30;;;;;;;6.10;1.48;;;16.10;99.90;;;;;;5051265;28;20116;-66
2022/11/02 12:00:00;;;;;;;10.20;1.92;;;16.10;99.90;;;;;;5057512;28;20187;-65
2022/11/02 12:02:29;;;;;;;7.75;1.70;;;15.90;99.90;;;;;;5051918;28;20116;-65
2022/11/02 12:05:14;;;;;;;7.25;1.13;;;15.60;99.90;;;;;;5057142;28;20099;-65
2022/11/02 12:07:52;;;;;;;11.32;1.70;;;15.30;99.90;;;;;;5055650;28;20053;-65
2022/11/02 12:10:37;;;;;;;8.32;1.48;;;14.90;99.90;;;;;;5035169;28;20120;-65
2022/11/02 12:13:40;;;;;;;7.55;1.27;;;14.80;99.90;;;;;;5060993;28;20481;-65
2022/11/02 12:16:36;;;;;;;9.80;1.35;;;14.60;99.90;;;;;;5064135;28;20052;-65
2022/11/02 12:19:29;;;;;;;10.50;1.60;;;14.60;99.90;;;;;;5072319;28;20459;-65
2022/11/02 12:22:21;;;;;;;8.07;1.38;;;14.80;99.90;;;;;;5068790;28;20477;-65
2022/11/02 12:25:08;;;;;;;8.52;1.33;;;15.10;99.90;;;;;;5072292;28;20493;-65
2022/11/02 12:27:44;;;;;;;7.78;1.45;;;15.10;99.90;;;;;;5070992;28;20412;-65
2022/11/02 12:30:13;;;;;;;5.53;1.40;;;15.20;99.90;;;;;;5054813;28;20496;-65
2022/11/02 12:33:03;;;;;;;10.05;1.60;;;15.20;99.90;;;;;;5071407;28;20044;-65
2022/11/02 12:35:53;;;;;;;8.80;1.35;;;15.20;99.90;;;;;;5072357;28;20033;-66
2022/11/02 12:38:53;;;;;;;8.90;1.83;;;15.20;99.90;;;;;;5072222;28;20119;-65
2022/11/02 12:41:25;;;;;;;;;;;15.20;99.90;;;;;;5071431;28;20056;-65
2022/11/02 12:44:17;;;;;;;6.47;1.40;;;15.10;99.90;;;;;;5070967;28;20435;-65
2022/11/02 12:46:55;;;;;;;12.65;1.75;;;15.00;99.90;;;;;;5069489;28;20382;-65
2022/11/02 12:49:55;;;;;;;8.55;1.55;;;15.00;99.90;;;;;;5070389;28;20041;-66
2022/11/02 12:52:41;;;;;;;6.10;1.50;;;15.00;99.90;;;;;;5069200;28;20043;-65
2022/11/02 12:55:19;;;;;;;9.25;1.83;;;15.00;99.90;;;;;;5061400;28;20037;-65
2022/11/02 12:57:58;;;;;;;9.75;1.90;;;14.90;99.90;;;;;;5051610;28;20492;-65
2022/11/02 13:00:36;;;;;;;10.13;1.65;;;14.80;99.90;;;;;;5041892;28;20056;-65
2022/11/02 13:03:06;;;;;;;11.75;1.48;;;14.70;99.90;;;;;;5054031;28;20045;-65
2022/11/02 13:05:47;;;;;;;10.57;1.23;;;14.70;99.90;;;;;;5054842;28;20044;-66
2022/11/02 13:08:58;;;;;;;8.93;1.63;;;14.60;99.90;;;;;;5068332;28;20045;-65
2022/11/02 13:11:44;;;;;;;10.60;2.42;;;14.60;99.90;;;;;;5054496;28;20041;-65
2022/11/02 13:14:18;;;;;;;6.30;1.40;;;14.60;99.90;;;;;;5057666;28;20583;-65
2022/11/02 13:17:14;;;;;;;10.82;1.52;;;14.60;99.90;;;;;;5055329;28;20083;-65
2022/11/02 13:20:00;;;;;;;10.18;2.40;;;14.60;99.90;;;;;;5052654;28;20068;-66
2022/11/02 13:22:39;;;;;;;10.43;2.20;;;14.50;99.90;;;;;;5052227;28;20053;-65
2022/11/02 13:25:41;;;;;;;5.75;1.25;;;14.50;99.90;;;;;;5068593;28;20049;-65
2022/11/02 13:28:32;;;;;;;6.75;1.40;;;14.50;99.90;;;;;;5054621;28;20049;-65
2022/11/02 13:30:58;;;;;;;;;;;14.50;99.90;;;;;;5051958;28;20102;-65